CMA CGM Butterfly — A8NO8 — position and weather

sailwx.info

Track history (hours):
 
Tides and Currents Weather Stations Pressure Air Temp Water Temp Dewpoint Dewpoint Depression Visibility Wind Speed Wind Dir Waves Ship Positions

CMA CGM Butterfly

Last reported at 2014-Oct-08 07:33 UTC. Time now 2014-Oct-21 07:05 UTC.
Position N 30°20' E 032°25'.
Warning: this ship's position is 12 days out of date.

Length 350 m; draft 13.9 m.

Type: Ship (hazmat cat A). MMSI: 636091420.

Date/timePositionNaut miles runAvg speedWind from/ knotsBaromVisibWave heightAir tempDewpointWater temp
2014-Oct-08 07:33N 30°20' E 032°25'0 0.1
2014-Oct-08 06:30N 30°20' E 032°25'50 5.4
2014-Oct-07 21:14N 31°10' E 032°20'6 8.0
2014-Oct-07 20:31N 31°15' E 032°21'14 9.9
2014-Oct-07 19:09N 31°29' E 032°20'2 3.7
2014-Oct-07 18:32N 31°27' E 032°18'0 0.0
2014-Oct-07 17:32N 31°27' E 032°18'0 0.4
2014-Oct-07 16:34N 31°28' E 032°17'1212.1
2014-Oct-07 15:33N 31°36' E 032°07'1515.2
2014-Oct-07 14:33N 31°47' E 031°55'1514.7
2014-Oct-07 13:33N 31°55' E 031°40'3015.2
2014-Oct-07 11:33N 32°03' E 031°06'1515.2
2014-Oct-07 10:32N 32°08' E 030°48'2015.1
2014-Oct-07 09:13N 32°13' E 030°26'  
2014-Oct-03 18:06N 35°42' E 014°37'610.8
2014-Oct-03 17:32N 35°38' E 014°44'1 0.5
2014-Oct-03 15:28N 35°37' E 014°44'322 8.7
2014-Oct-02 02:33N 37°17' E 008°24'1411.5
2014-Oct-02 01:20N 37°17' E 008°06'911.6
2014-Oct-02 00:33N 37°16' E 007°55'1111.5
2014-Oct-01 23:33N 37°16' E 007°40'7211.5
2014-Oct-01 17:16N 37°12' E 006°10'7011.7
2014-Oct-01 11:15N 37°08' E 004°41'4712.7
2014-Oct-01 07:33N 37°05' E 003°42'3014.9
2014-Oct-01 05:33N 37°00' E 003°06'1515.1
2014-Oct-01 04:33N 36°58' E 002°47'9715.1
2014-Sep-30 22:05N 36°42' E 000°47'29915.3
2014-Sep-30 02:33N 35°59' W 005°20'6 0.2
2014-Sep-28 21:27N 35°59' W 005°27'9 4.2
2014-Sep-28 19:13N 36°08' W 005°26'0 0.0
2014-Sep-28 18:16N 36°08' W 005°26'0 0.0
2014-Sep-28 17:31N 36°08' W 005°26'0 0.0
2014-Sep-28 16:28N 36°08' W 005°26'0 0.0
2014-Sep-28 15:28N 36°08' W 005°26'0 0.0
2014-Sep-28 14:31N 36°08' W 005°26'0 0.0
2014-Sep-28 13:31N 36°08' W 005°26'0 0.0
2014-Sep-28 12:31N 36°08' W 005°26'  
Track history (hours):
 
Tides and Currents Weather Stations Pressure Air Temp Water Temp Dewpoint Dewpoint Depression Visibility Wind Speed Wind Dir Waves Ship Positions

CMA CGM Butterfly

Last reported at 2014-Oct-08 07:33 UTC. Time now 2014-Oct-21 07:05 UTC.
Position N 30°20' E 032°25'.
Warning: this ship's position is 12 days out of date.

Length 350 m; draft 13.9 m.

Type: Ship (hazmat cat A). MMSI: 636091420.

Date/timePositionNaut miles runAvg speedWind from/ knotsBaromVisibWave heightAir tempDewpointWater temp
2014-Oct-08 07:33N 30°20' E 032°25'0 0.1
2014-Oct-08 06:30N 30°20' E 032°25'50 5.4
2014-Oct-07 21:14N 31°10' E 032°20'6 8.0
2014-Oct-07 20:31N 31°15' E 032°21'14 9.9
2014-Oct-07 19:09N 31°29' E 032°20'2 3.7
2014-Oct-07 18:32N 31°27' E 032°18'0 0.0
2014-Oct-07 17:32N 31°27' E 032°18'0 0.4
2014-Oct-07 16:34N 31°28' E 032°17'1212.1
2014-Oct-07 15:33N 31°36' E 032°07'1515.2
2014-Oct-07 14:33N 31°47' E 031°55'1514.7
2014-Oct-07 13:33N 31°55' E 031°40'3015.2
2014-Oct-07 11:33N 32°03' E 031°06'1515.2
2014-Oct-07 10:32N 32°08' E 030°48'2015.1
2014-Oct-07 09:13N 32°13' E 030°26'  
2014-Oct-03 18:06N 35°42' E 014°37'610.8
2014-Oct-03 17:32N 35°38' E 014°44'1 0.5
2014-Oct-03 15:28N 35°37' E 014°44'322 8.7
2014-Oct-02 02:33N 37°17' E 008°24'1411.5
2014-Oct-02 01:20N 37°17' E 008°06'911.6
2014-Oct-02 00:33N 37°16' E 007°55'1111.5
2014-Oct-01 23:33N 37°16' E 007°40'7211.5
2014-Oct-01 17:16N 37°12' E 006°10'7011.7
2014-Oct-01 11:15N 37°08' E 004°41'4712.7
2014-Oct-01 07:33N 37°05' E 003°42'3014.9
2014-Oct-01 05:33N 37°00' E 003°06'1515.1
2014-Oct-01 04:33N 36°58' E 002°47'9715.1
2014-Sep-30 22:05N 36°42' E 000°47'29915.3
2014-Sep-30 02:33N 35°59' W 005°20'6 0.2
2014-Sep-28 21:27N 35°59' W 005°27'9 4.2
2014-Sep-28 19:13N 36°08' W 005°26'0 0.0
2014-Sep-28 18:16N 36°08' W 005°26'0 0.0
2014-Sep-28 17:31N 36°08' W 005°26'0 0.0
2014-Sep-28 16:28N 36°08' W 005°26'0 0.0
2014-Sep-28 15:28N 36°08' W 005°26'0 0.0
2014-Sep-28 14:31N 36°08' W 005°26'0 0.0
2014-Sep-28 13:31N 36°08' W 005°26'0 0.0
2014-Sep-28 12:31N 36°08' W 005°26'  

Dump ship's entire track history